Time;durP1;ratioP1;P1;durP2;ratioP2;P2;SDS_P1;SDS_P2;PMS_P1;PMS_P2;Temp;Humidity;BMP_temperature;BMP_pressure;BME280_temperature;BME280_humidity;BME280_pressure;Samples;Min_cycle;Max_cycle;Signal;HPM_P1;HPM_P2
2023/06/23 00:01:06;;;;;;;9.73;8.45;;;;;;;19.00;100.00;63962.88;5065848;28;20221;-78
2023/06/23 00:03:33;;;;;;;10.50;8.75;;;;;;;18.91;100.00;63956.09;5070046;28;20204;-77
2023/06/23 00:06:03;;;;;;;9.60;8.60;;;;;;;18.96;100.00;63963.88;5069635;28;20221;-78
2023/06/23 00:08:31;;;;;;;10.48;8.27;;;;;;;18.89;100.00;63958.63;5071108;28;20203;-76
2023/06/23 00:10:57;;;;;;;8.35;7.50;;;;;;;18.89;100.00;63953.47;5072807;28;20282;-76
2023/06/23 00:13:26;;;;;;;10.68;9.23;;;;;;;18.81;100.00;63950.81;5068833;28;20523;-77
2023/06/23 00:15:54;;;;;;;11.60;9.02;;;;;;;18.83;100.00;63950.31;5068716;28;20425;-76
2023/06/23 00:18:21;;;;;;;11.45;8.20;;;;;;;18.83;100.00;63949.78;5068984;28;20230;-77
2023/06/23 00:20:49;;;;;;;8.45;7.60;;;;;;;18.82;100.00;63946.16;5066010;28;20633;-77
2023/06/23 00:23:16;;;;;;;9.13;8.25;;;;;;;18.82;100.00;63946.16;5069969;28;20352;-76
2023/06/23 00:25:43;;;;;;;9.35;8.07;;;;;;;18.80;100.00;63946.66;5080484;28;20283;-76
2023/06/23 00:28:10;;;;;;;9.18;8.38;;;;;;;18.80;100.00;63944.06;5076282;28;20208;-75
2023/06/23 00:30:39;;;;;;;9.38;8.35;;;;;;;18.81;100.00;63947.72;5069104;28;20246;-77
2023/06/23 00:33:06;;;;;;;9.93;8.32;;;;;;;18.76;100.00;63939.94;5065826;28;20208;-77
2023/06/23 00:35:33;;;;;;;9.60;7.90;;;;;;;18.73;100.00;63934.19;5065782;28;20398;-76
2023/06/23 00:37:59;;;;;;;8.45;7.65;;;;;;;18.68;100.00;63926.94;5076320;28;20213;-76
2023/06/23 00:40:26;;;;;;;9.57;8.45;;;;;;;18.65;100.00;63928.44;5066408;28;20275;-76
2023/06/23 00:42:53;;;;;;;12.30;8.50;;;;;;;18.68;100.00;63929.53;5086524;28;20488;-77
2023/06/23 00:45:21;;;;;;;11.60;8.65;;;;;;;18.62;100.00;63927.91;5068155;28;20234;-76
2023/06/23 00:47:50;;;;;;;10.02;9.07;;;;;;;18.55;100.00;63915.44;5066720;28;20201;-76
2023/06/23 00:50:19;;;;;;;12.98;9.50;;;;;;;18.54;100.00;63916.97;5065104;28;20269;-77
2023/06/23 00:52:51;;;;;;;10.48;9.02;;;;;;;18.50;100.00;63912.81;5065111;28;20237;-77
2023/06/23 00:55:19;;;;;;;9.50;8.23;;;;;;;18.51;100.00;63916.44;5066164;28;20201;-77
2023/06/23 00:57:46;;;;;;;9.10;8.30;;;;;;;18.50;100.00;63913.34;5066741;28;20226;-77
2023/06/23 01:00:18;;;;;;;10.35;9.25;;;;;;;18.49;100.00;63914.34;5080835;28;20200;-76
2023/06/23 01:02:45;;;;;;;9.35;8.45;;;;;;;18.49;100.00;63914.34;5079342;28;20204;-76
2023/06/23 01:05:14;;;;;;;9.55;8.55;;;;;;;18.51;100.00;63911.28;5064935;28;20201;-77
2023/06/23 01:07:48;;;;;;;9.90;9.00;;;;;;;18.51;100.00;63911.28;5067068;28;20201;-77
2023/06/23 01:10:20;;;;;;;8.63;7.72;;;;;;;18.44;100.00;63912.25;5065303;28;20196;-78
2023/06/23 01:12:55;;;;;;;10.02;8.25;;;;;;;18.42;100.00;63902.41;5070785;28;20437;-77
2023/06/23 01:15:31;;;;;;;9.35;8.50;;;;;;;18.46;100.00;63906.06;5085504;28;20242;-77
2023/06/23 01:18:06;;;;;;;10.10;8.52;;;;;;;18.47;100.00;63915.38;5066414;28;20212;-77
2023/06/23 01:20:39;;;;;;;10.40;8.93;;;;;;;18.46;100.00;63906.06;5064264;28;20224;-76
2023/06/23 01:23:35;;;;;;;10.73;8.98;;;;;;;18.46;100.00;63908.66;5077257;28;20208;-76
2023/06/23 01:26:09;;;;;;;10.15;9.15;;;;;;;18.50;100.00;63918.50;5065945;28;20224;-76
2023/06/23 01:28:44;;;;;;;10.00;8.82;;;;;;;18.52;100.00;63915.41;5065979;28;20204;-77
2023/06/23 01:31:15;;;;;;;9.45;8.40;;;;;;;18.50;100.00;63912.81;5067553;28;20286;-76
2023/06/23 01:33:48;;;;;;;10.85;9.27;;;;;;;18.46;100.00;63909.19;5084180;28;20204;-78
2023/06/23 01:36:25;;;;;;;9.32;8.48;;;;;;;18.46;100.00;63911.75;5078650;28;20227;-78
2023/06/23 01:38:58;;;;;;;8.77;7.88;;;;;;;18.42;100.00;63910.16;5079850;28;20263;-76
2023/06/23 01:41:29;;;;;;;9.90;8.27;;;;;;;18.37;100.00;63905.47;5073587;28;20228;-77
2023/06/23 01:44:04;;;;;;;13.63;9.85;;;;;;;18.36;100.00;63898.75;5067527;28;20347;-78
2023/06/23 01:46:35;;;;;;;11.15;8.32;;;;;;;18.36;100.00;63898.75;5067463;28;20215;-77
2023/06/23 01:49:10;;;;;;;15.80;9.38;;;;;;;18.30;100.00;63892.47;5079747;28;20251;-76
2023/06/23 01:51:42;;;;;;;10.43;9.23;;;;;;;18.36;100.00;63896.66;5078375;28;20231;-77
2023/06/23 01:54:11;;;;;;;9.65;8.75;;;;;;;18.29;100.00;63894.03;5078092;28;20486;-76
2023/06/23 01:56:40;;;;;;;11.32;9.85;;;;;;;18.33;100.00;63893.53;5068429;28;20233;-77
2023/06/23 01:59:10;;;;;;;11.48;9.43;;;;;;;18.33;100.00;63898.69;5084953;28;20408;-77
2023/06/23 02:01:38;;;;;;;10.93;8.85;;;;;;;18.35;100.00;63895.09;5076787;28;20216;-78
2023/06/23 02:04:06;;;;;;;9.45;8.30;;;;;;;18.31;100.00;63896.63;5072166;28;20192;-77
2023/06/23 02:06:39;;;;;;;10.75;9.40;;;;;;;18.26;100.00;63890.88;5071655;28;20249;-76
2023/06/23 02:09:08;;;;;;;9.65;8.63;;;;;;;18.27;100.00;63887.28;5080173;28;20199;-77
2023/06/23 02:11:37;;;;;;;11.80;9.75;;;;;;;18.32;100.00;63895.09;5084531;28;20246;-77
2023/06/23 02:14:05;;;;;;;12.30;9.95;;;;;;;18.34;100.00;63894.56;5068964;28;20255;-76
2023/06/23 02:16:35;;;;;;;11.07;9.98;;;;;;;18.33;100.00;63898.69;5065690;28;20544;-78
2023/06/23 02:19:04;;;;;;;10.73;9.65;;;;;;;18.30;100.00;63895.06;5063617;28;20203;-78
2023/06/23 02:21:33;;;;;;;13.30;10.40;;;;;;;18.32;100.00;63894.56;5064057;28;20514;-77
2023/06/23 02:24:04;;;;;;;10.90;9.32;;;;;;;18.35;100.00;63897.69;5063481;28;20193;-78
2023/06/23 02:26:32;;;;;;;11.02;9.80;;;;;;;18.35;100.00;63900.78;5064346;28;20242;-77
2023/06/23 02:29:00;;;;;;;11.48;10.13;;;;;;;18.32;100.00;63897.66;5069818;28;20219;-77
2023/06/23 02:31:27;;;;;;;9.55;8.63;;;;;;;18.31;100.00;63891.47;5081856;28;20524;-78
2023/06/23 02:33:56;;;;;;;10.50;9.50;;;;;;;18.29;100.00;63891.44;5076459;28;20220;-76
2023/06/23 02:36:28;;;;;;;10.35;9.20;;;;;;;18.26;100.00;63890.88;5063557;28;20234;-77
2023/06/23 02:38:58;;;;;;;10.35;9.23;;;;;;;18.30;100.00;63895.59;5063678;28;20255;-76
2023/06/23 02:41:28;;;;;;;9.63;8.52;;;;;;;18.29;100.00;63891.44;5063681;28;20224;-76
2023/06/23 02:44:00;;;;;;;11.93;10.25;;;;;;;18.27;100.00;63891.94;5065748;28;20220;-77
2023/06/23 02:46:34;;;;;;;11.35;9.60;;;;;;;18.25;100.00;63889.84;5070049;28;20216;-76
2023/06/23 02:49:07;;;;;;;10.98;9.88;;;;;;;18.21;100.00;63885.69;5068034;28;20263;-76
2023/06/23 02:51:36;;;;;;;12.07;10.30;;;;;;;18.25;100.00;63887.28;5072817;28;20243;-77
2023/06/23 02:54:08;;;;;;;11.35;10.15;;;;;;;18.24;100.00;63886.75;5068628;28;20275;-77
2023/06/23 02:56:41;;;;;;;11.48;10.00;;;;;;;18.25;100.00;63889.84;5068458;28;20220;-77
2023/06/23 02:59:09;;;;;;;11.80;10.80;;;;;;;18.20;100.00;63887.75;5070087;28;20196;-76
2023/06/23 03:01:40;;;;;;;11.63;10.43;;;;;;;18.23;100.00;63888.28;5071414;28;20228;-78
2023/06/23 03:04:08;;;;;;;12.65;10.38;;;;;;;18.17;100.00;63879.44;5067728;28;20482;-76
2023/06/23 03:06:36;;;;;;;12.52;10.00;;;;;;;18.29;100.00;63888.88;5071207;28;20243;-76
2023/06/23 03:09:03;;;;;;;11.30;9.90;;;;;;;18.18;100.00;63880.50;5068774;28;20239;-77
2023/06/23 03:11:31;;;;;;;12.05;9.50;;;;;;;18.17;100.00;63878.94;5078738;28;20415;-76
2023/06/23 03:13:59;;;;;;;11.93;10.73;;;;;;;18.22;100.00;63886.72;5084973;28;20274;-76
2023/06/23 03:16:31;;;;;;;11.13;9.98;;;;;;;18.25;100.00;63887.78;5088120;28;20262;-78
2023/06/23 03:19:07;;;;;;;11.57;10.43;;;;;;;18.31;100.00;63890.94;5082047;28;20196;-77
2023/06/23 03:21:39;;;;;;;14.68;10.57;;;;;;;18.38;100.00;63898.22;5076400;28;20228;-77
2023/06/23 03:24:10;;;;;;;16.05;10.48;;;;;;;18.44;100.00;63907.09;5066929;28;20225;-77
2023/06/23 03:26:41;;;;;;;12.88;10.05;;;;;;;18.49;100.00;63911.78;5067443;28;20261;-76
2023/06/23 03:29:11;;;;;;;12.50;10.43;;;;;;;18.57;100.00;63923.22;5070278;28;20254;-77
2023/06/23 03:31:43;;;;;;;11.05;10.05;;;;;;;18.68;100.00;63932.09;5067658;28;20224;-77
2023/06/23 03:34:11;;;;;;;12.88;10.93;;;;;;;18.71;100.00;63935.22;5068943;28;20211;-78
2023/06/23 03:36:41;;;;;;;12.05;10.02;;;;;;;18.77;100.00;63943.53;5067830;28;20224;-76
2023/06/23 03:39:15;;;;;;;12.90;10.85;;;;;;;18.85;100.00;63949.28;5066015;28;20390;-77
2023/06/23 03:41:43;;;;;;;10.90;9.77;;;;;;;18.92;100.00;63957.13;5071366;28;20211;-76
2023/06/23 03:44:18;;;;;;;12.63;10.43;;;;;;;19.00;100.00;63965.44;5075270;28;20205;-77
2023/06/23 03:46:51;;;;;;;13.57;10.65;;;;;;;19.04;100.00;63969.09;5074723;28;20219;-77
2023/06/23 03:49:22;;;;;;;13.48;11.73;;;;;;;18.94;100.00;63961.78;5068180;28;20200;-77
2023/06/23 03:51:52;;;;;;;13.07;10.45;;;;;;;18.94;100.00;63958.69;5074795;28;20219;-76
2023/06/23 03:54:21;;;;;;;12.02;10.85;;;;;;;19.07;100.00;63972.25;5079271;28;20283;-77
2023/06/23 03:56:49;;;;;;;12.52;11.23;;;;;;;19.21;100.00;63987.34;5064988;28;20224;-77
2023/06/23 03:59:20;;;;;;;13.43;11.43;;;;;;;19.27;100.00;63998.78;5067271;28;20205;-78
2023/06/23 04:01:49;;;;;;;16.55;11.13;;;;;;;19.29;100.00;63995.69;5072662;28;20217;-80
2023/06/23 04:04:21;;;;;;;13.32;11.73;;;;;;;19.25;100.00;63996.69;5070013;28;20196;-77
2023/06/23 04:06:52;;;;;;;16.10;12.05;;;;;;;19.33;100.00;64002.47;5069611;28;20229;-77
2023/06/23 04:09:22;;;;;;;14.20;11.38;;;;;;;19.45;100.00;64006.69;5066572;28;20499;-78
2023/06/23 04:11:53;;;;;;;14.52;12.80;;;;;;;19.52;100.00;64019.69;5079173;28;20267;-77
2023/06/23 04:14:22;;;;;;;15.02;12.25;;;;;;;19.55;100.00;64019.72;5075318;28;20222;-77
2023/06/23 04:16:50;;;;;;;19.33;12.57;;;;;;;19.53;100.00;64020.22;5067106;28;20229;-76
2023/06/23 04:19:19;;;;;;;18.23;13.15;;;;;;;19.65;100.00;64034.78;5067425;28;20205;-77
2023/06/23 04:21:47;;;;;;;14.73;13.10;;;;;;;19.71;100.00;64041.56;5072393;28;20478;-77
2023/06/23 04:24:18;;;;;;;18.15;12.77;;;;;;;19.66;100.00;64030.66;5076267;28;20212;-78
2023/06/23 04:26:46;;;;;;;15.68;13.05;;;;;;;19.46;100.00;64012.91;5069291;28;20223;-75
2023/06/23 04:29:15;;;;;;;22.45;15.60;;;;;;;19.36;100.00;64002.50;5082755;28;20314;-77
2023/06/23 04:31:43;;;;;;;23.58;15.95;;;;;;;19.35;100.00;64004.56;5064768;28;20560;-77
2023/06/23 04:34:10;;;;;;;24.27;16.73;;;;;;;19.45;100.00;64009.81;5067637;28;20196;-78
2023/06/23 04:36:44;;;;;;;24.08;17.10;;;;;;;19.48;100.00;64015.00;5066575;28;20225;-77
2023/06/23 04:39:17;;;;;;;21.83;16.00;;;;;;;19.52;100.00;64019.69;5067178;28;20208;-76
2023/06/23 04:41:49;;;;;;;25.35;17.80;;;;;;;19.69;100.00;64036.91;5069636;28;20251;-77
2023/06/23 04:44:18;;;;;;;22.52;16.55;;;;;;;19.79;100.00;64047.34;5081662;28;20250;-76
2023/06/23 04:46:47;;;;;;;20.23;16.67;;;;;;;19.86;100.00;64056.72;5072503;28;20224;-76
2023/06/23 04:49:19;;;;;;;22.30;17.98;;;;;;;19.97;100.00;64068.16;5072838;28;20200;-76
2023/06/23 04:51:47;;;;;;;22.08;16.27;;;;;;;20.03;100.00;64071.84;5065451;28;20248;-77
2023/06/23 04:54:20;;;;;;;27.45;16.63;;;;;;;20.02;100.00;64070.81;5071687;28;20215;-76
2023/06/23 04:56:50;;;;;;;21.38;17.33;;;;;;;20.24;100.00;64093.78;5067753;28;20287;-76
2023/06/23 04:59:22;;;;;;;24.63;16.83;;;;;;;20.30;100.00;64100.03;5065704;28;20446;-77
2023/06/23 05:01:50;;;;;;;25.88;16.38;;;;;;;20.36;100.00;64112.00;5069405;28;20226;-76
2023/06/23 05:04:19;;;;;;;22.05;17.17;;;;;;;20.50;100.00;64121.44;5085414;28;20246;-77
2023/06/23 05:06:48;;;;;;;24.65;16.73;;;;;;;20.59;100.00;64130.84;5076877;28;20277;-78
2023/06/23 05:09:17;;;;;;;20.25;15.48;;;;;;;20.65;100.00;64134.00;5077385;28;20192;-77
2023/06/23 05:11:45;;;;;;;20.27;16.17;;;;;;;20.71;100.00;64142.34;5069496;28;20236;-77
2023/06/23 05:14:16;;;;;;;22.40;17.02;;;;;;;20.71;100.00;64144.91;5066252;28;20299;-77
2023/06/23 05:16:44;;;;;;;20.58;15.88;;;;;;;20.85;100.00;64156.94;5067882;28;20220;-77
2023/06/23 05:19:12;;;;;;;18.10;15.18;;;;;;;20.90;100.00;64162.69;5084547;28;20253;-76
2023/06/23 05:21:41;;;;;;;22.83;15.50;;;;;;;20.94;100.00;64168.91;5085964;28;20239;-75
2023/06/23 05:24:11;;;;;;;19.13;14.88;;;;;;;20.99;100.00;64174.16;5076030;28;20214;-76
2023/06/23 05:26:41;;;;;;;19.00;13.90;;;;;;;21.04;100.00;64177.31;5075000;28;20390;-76
2023/06/23 05:29:11;;;;;;;18.33;13.82;;;;;;;21.29;100.00;64205.50;5071038;28;20396;-76
2023/06/23 05:31:43;;;;;;;20.85;15.20;;;;;;;21.36;100.00;64215.94;5070250;28;20240;-78
2023/06/23 05:34:14;;;;;;;18.00;14.00;;;;;;;21.28;100.00;64202.38;5074589;28;20390;-75
2023/06/23 05:36:44;;;;;;;20.77;14.38;;;;;;;21.24;100.00;64200.28;5069959;28;20240;-77
2023/06/23 05:39:15;;;;;;;16.73;14.52;;;;;;;21.38;100.00;64212.31;5065410;28;20217;-77
2023/06/23 05:41:42;;;;;;;18.58;14.63;;;;;;;21.58;100.00;64235.78;5064654;28;20477;-77
2023/06/23 05:44:10;;;;;;;19.08;14.52;;;;;;;21.70;100.00;64250.91;5066545;28;20204;-77
2023/06/23 05:46:42;;;;;;;18.85;13.63;;;;;;;21.71;100.00;64246.78;5066306;28;20251;-76
2023/06/23 05:49:15;;;;;;;19.70;13.25;;;;;;;21.70;100.00;64248.84;5065467;28;20238;-78
2023/06/23 05:51:43;;;;;;;18.15;12.63;;;;;;;21.72;100.00;64250.41;5076234;28;20220;-77
2023/06/23 05:54:12;;;;;;;19.00;13.27;;;;;;;21.97;100.00;64273.97;5069041;28;20232;-76
2023/06/23 05:56:44;;;;;;;15.95;13.50;;;;;;;22.16;100.00;64290.72;5064670;28;20434;-76
2023/06/23 05:59:19;;;;;;;16.65;14.15;;;;;;;22.15;100.00;64292.25;5069812;28;20276;-76
2023/06/23 06:01:52;;;;;;;19.17;14.05;;;;;;;22.18;100.00;64290.19;5064626;28;20231;-75
2023/06/23 06:04:22;;;;;;;15.50;13.00;;;;;;;22.23;100.00;64300.59;5065005;28;20200;-78
2023/06/23 06:06:51;;;;;;;20.67;13.27;;;;;;;22.22;100.00;64296.97;5064811;28;20228;-76
2023/06/23 06:09:19;;;;;;;16.35;12.52;;;;;;;22.28;100.00;64305.84;5072971;28;20193;-77
2023/06/23 06:11:48;;;;;;;16.70;12.05;;;;;;;22.56;100.00;64346.03;5067875;28;20307;-78
2023/06/23 06:14:17;;;;;;;13.93;11.60;;;;;;;22.68;100.00;64355.47;5071527;28;20290;-77
2023/06/23 06:16:45;;;;;;;13.48;12.07;;;;;;;22.72;100.00;64351.88;5064578;28;20228;-77
2023/06/23 06:19:17;;;;;;;14.02;12.25;;;;;;;22.87;100.00;64368.06;5065590;28;20215;-76
2023/06/23 06:21:46;;;;;;;20.73;13.75;;;;;;;22.62;100.00;64346.59;5063721;28;20232;-78
2023/06/23 06:24:16;;;;;;;16.55;12.52;;;;;;;22.46;100.00;64327.78;5085663;28;20204;-76
2023/06/23 06:26:46;;;;;;;16.27;13.93;;;;;;;22.46;100.00;64327.25;5087959;28;20224;-77
2023/06/23 06:29:15;;;;;;;16.27;12.68;;;;;;;22.46;100.00;64325.19;5070955;28;20201;-78
2023/06/23 06:31:46;;;;;;;15.05;12.40;;;;;;;22.72;100.00;64351.88;5064387;28;20220;-77
2023/06/23 06:34:17;;;;;;;17.88;12.43;;;;;;;22.79;100.00;64359.19;5064537;28;20236;-79
2023/06/23 06:36:45;;;;;;;17.48;11.68;;;;;;;23.08;100.00;64388.97;5064145;28;20224;-78
2023/06/23 06:39:12;;;;;;;14.90;12.60;;;;;;;23.32;100.00;64416.69;5074448;28;20237;-77
2023/06/23 06:41:41;;;;;;;15.82;12.43;;;;;;;23.36;100.00;64420.91;5089000;28;20216;-76
2023/06/23 06:44:09;;;;;;;16.58;12.85;;;;;;;23.20;100.00;64407.25;5087039;28;20204;-76
2023/06/23 06:46:39;;;;;;;15.50;13.15;;;;;;;23.09;100.00;64392.63;5065698;28;20233;-77
2023/06/23 06:49:09;;;;;;;13.57;12.18;;;;;;;23.03;100.00;64386.34;5074167;28;20544;-77
2023/06/23 06:51:39;;;;;;;13.73;12.25;;;;;;;23.24;100.00;64405.72;5074799;28;20219;-77
2023/06/23 06:54:06;;;;;;;16.38;13.05;;;;;;;23.23;100.00;64407.78;5076297;28;20228;-75
2023/06/23 06:56:36;;;;;;;16.20;14.18;;;;;;;23.30;100.00;64412.00;5064995;28;20224;-76
2023/06/23 06:59:04;;;;;;;16.55;13.30;;;;;;;23.30;100.00;64412.00;5071764;28;20200;-76
2023/06/23 07:01:31;;;;;;;18.02;12.18;;;;;;;23.58;100.00;64438.72;5063343;28;20460;-78
2023/06/23 07:03:58;;;;;;;15.13;13.60;;;;;;;23.69;100.00;64450.72;5064099;28;20227;-74
2023/06/23 07:06:27;;;;;;;16.73;12.48;;;;;;;23.90;100.00;64477.91;5075497;28;20231;-75
2023/06/23 07:08:56;;;;;;;13.75;12.30;;;;;;;23.98;99.76;64486.31;5068017;28;20200;-76
2023/06/23 07:11:22;;;;;;;14.02;12.65;;;;;;;24.23;96.50;64511.44;5069373;28;20239;-77
2023/06/23 07:13:49;;;;;;;13.10;11.52;;;;;;;24.44;95.65;64530.81;5068467;28;20242;-75
2023/06/23 07:16:16;;;;;;;13.75;11.55;;;;;;;24.52;96.56;64539.72;5068226;28;20220;-74
2023/06/23 07:18:43;;;;;;;16.13;12.38;;;;;;;24.23;98.07;64511.44;5072869;28;20577;-76
2023/06/23 07:21:10;;;;;;;13.38;11.90;;;;;;;24.45;100.00;64527.19;5082601;28;20230;-75
2023/06/23 07:23:39;;;;;;;13.52;12.18;;;;;;;24.37;96.15;64526.09;5062827;28;20211;-76
2023/06/23 07:26:07;;;;;;;12.90;11.52;;;;;;;24.40;93.67;64526.63;5065179;28;20213;-75
2023/06/23 07:28:34;;;;;;;14.15;10.80;;;;;;;24.61;92.02;64548.63;5080422;28;20473;-77
2023/06/23 07:31:01;;;;;;;16.92;11.07;;;;;;;24.54;90.90;64547.00;5066786;28;20213;-77
2023/06/23 07:33:28;;;;;;;15.50;11.82;;;;;;;24.46;96.76;64532.91;5066236;28;20288;-76
2023/06/23 07:35:55;;;;;;;15.82;11.23;;;;;;;24.67;95.41;64552.28;5067108;28;20426;-77
2023/06/23 07:38:21;;;;;;;14.07;11.40;;;;;;;24.69;91.83;64559.63;5066685;28;20232;-77
2023/06/23 07:40:48;;;;;;;18.30;11.75;;;;;;;24.62;97.57;64552.81;5065833;28;20529;-76
2023/06/23 07:43:17;;;;;;;13.45;12.00;;;;;;;24.73;94.38;64559.13;5070352;28;20228;-75
2023/06/23 07:45:44;;;;;;;13.93;11.60;;;;;;;25.02;93.20;64594.19;5074095;28;20220;-76
2023/06/23 07:48:11;;;;;;;13.55;11.95;;;;;;;25.17;96.74;64602.06;5069600;28;20204;-76
2023/06/23 07:50:38;;;;;;;13.40;11.90;;;;;;;25.38;94.59;64629.31;5072989;28;20231;-74
2023/06/23 07:53:05;;;;;;;13.82;12.43;;;;;;;25.31;91.90;64624.56;5072009;28;20240;-76
2023/06/23 07:55:32;;;;;;;14.68;11.35;;;;;;;25.12;90.17;64607.28;5073732;28;20223;-76
2023/06/23 07:57:59;;;;;;;12.40;11.10;;;;;;;25.06;91.38;64598.91;5070370;28;20264;-76
2023/06/23 08:00:27;;;;;;;12.07;10.95;;;;;;;25.22;89.55;64617.22;5066765;28;20213;-77
2023/06/23 08:02:54;;;;;;;14.00;10.75;;;;;;;25.44;88.98;64635.09;5071374;28;20231;-75
2023/06/23 08:05:21;;;;;;;13.45;11.82;;;;;;;25.47;88.79;64640.81;5070041;28;20212;-76
2023/06/23 08:07:48;;;;;;;12.35;11.05;;;;;;;25.48;89.25;64644.47;5069735;28;20216;-76
2023/06/23 08:10:15;;;;;;;11.98;10.73;;;;;;;25.69;86.23;64664.41;5073377;28;20208;-75
2023/06/23 08:12:42;;;;;;;12.45;10.73;;;;;;;25.85;85.81;64678.56;5069062;28;20525;-76
2023/06/23 08:15:10;;;;;;;11.98;10.30;;;;;;;25.67;82.17;64659.69;5072067;28;20236;-74
2023/06/23 08:17:39;;;;;;;10.93;9.82;;;;;;;25.76;81.71;64663.91;5063427;28;20197;-75
2023/06/23 08:20:07;;;;;;;11.93;10.48;;;;;;;25.74;84.94;64664.44;5069650;28;20212;-75
2023/06/23 08:22:33;;;;;;;13.75;10.68;;;;;;;25.85;82.83;64678.03;5078572;28;20207;-75
2023/06/23 08:25:00;;;;;;;10.88;9.90;;;;;;;26.12;80.17;64708.97;5070383;28;20212;-76
2023/06/23 08:27:27;;;;;;;24.40;14.32;;;;;;;26.37;81.96;64734.66;5072291;28;20196;-75
2023/06/23 08:29:54;;;;;;;14.13;10.98;;;;;;;26.51;77.06;64749.34;5073377;28;20196;-75
2023/06/23 08:32:21;;;;;;;12.13;10.85;;;;;;;26.33;77.44;64725.22;5073186;28;20315;-76
2023/06/23 08:34:50;;;;;;;12.75;11.15;;;;;;;26.29;76.36;64726.25;5070434;28;20227;-76
2023/06/23 08:37:17;;;;;;;13.55;10.68;;;;;;;26.01;76.69;64697.94;5070669;28;20224;-75
2023/06/23 08:39:44;;;;;;;13.68;10.70;;;;;;;26.32;74.84;64726.81;5076619;28;20217;-77
2023/06/23 08:42:13;;;;;;;11.45;10.25;;;;;;;26.51;72.97;64744.63;5072601;28;20726;-76
2023/06/23 08:44:43;;;;;;;12.07;10.73;;;;;;;26.78;74.48;64775.06;5071044;28;20539;-75
2023/06/23 08:47:14;;;;;;;12.48;10.02;;;;;;;26.73;72.89;64775.56;5071081;28;20217;-76
2023/06/23 08:49:42;;;;;;;14.18;10.60;;;;;;;26.70;72.20;64769.78;5071889;28;20205;-77
2023/06/23 08:52:11;;;;;;;11.70;10.43;;;;;;;26.80;72.70;64779.78;5063992;28;20295;-76
2023/06/23 08:54:39;;;;;;;10.77;9.68;;;;;;;26.98;71.68;64801.25;5075221;28;20447;-76
2023/06/23 08:57:07;;;;;;;10.77;9.77;;;;;;;27.03;71.62;64806.50;5071700;28;20227;-75
2023/06/23 08:59:34;;;;;;;16.80;10.85;;;;;;;27.22;70.06;64821.72;5070215;28;20200;-76
2023/06/23 09:02:01;;;;;;;14.30;10.68;;;;;;;27.22;67.35;64818.59;5071228;28;20259;-75
2023/06/23 09:04:28;;;;;;;11.18;9.75;;;;;;;27.27;66.91;64826.44;5070326;28;20282;-76
2023/06/23 09:06:55;;;;;;;13.38;9.73;;;;;;;27.28;63.73;64828.03;5072959;28;20224;-75
2023/06/23 09:09:23;;;;;;;15.68;10.25;;;;;;;27.15;63.56;64819.63;5071063;28;20256;-75
2023/06/23 09:11:51;;;;;;;12.02;10.00;;;;;;;27.18;63.95;64817.03;5066972;28;20234;-75
2023/06/23 09:14:19;;;;;;;12.40;9.77;;;;;;;27.24;63.00;64823.31;5069947;28;20223;-76
2023/06/23 09:16:47;;;;;;;10.68;9.60;;;;;;;27.43;59.33;64845.88;5063438;28;20221;-77
2023/06/23 09:19:16;;;;;;;10.00;8.52;;;;;;;27.59;57.22;64862.69;5066433;28;20197;-79
2023/06/23 09:21:43;;;;;;;11.90;8.68;;;;;;;27.36;58.38;64838.53;5070362;28;20490;-75
2023/06/23 09:24:10;;;;;;;9.60;8.60;;;;;;;27.27;59.61;64829.06;5066823;28;20267;-76
2023/06/23 09:26:50;;;;;;;12.27;8.68;;;;;;;27.34;60.53;64841.16;5073865;28;20216;-76
2023/06/23 09:29:19;;;;;;;14.23;8.57;;;;;;;27.52;57.43;64852.72;5070598;28;20427;-76
2023/06/23 09:31:47;;;;;;;8.65;7.82;;;;;;;27.67;55.69;64870.53;5073506;28;20230;-75
2023/06/23 09:34:25;;;;;;;22.55;8.95;;;;;;;27.64;54.74;64867.91;5068283;28;20259;-76
2023/06/23 09:36:53;;;;;;;10.15;7.95;;;;;;;27.81;53.38;64885.75;5073259;28;20239;-77
2023/06/23 09:39:21;;;;;;;10.23;9.32;;;;;;;27.96;56.86;64898.91;5067273;28;20197;-76
2023/06/23 09:41:55;;;;;;;12.25;8.27;;;;;;;28.05;55.33;64905.72;5073881;28;20216;-76
2023/06/23 09:44:23;;;;;;;10.93;8.55;;;;;;;27.90;53.32;64894.69;5066789;28;20242;-76
2023/06/23 09:47:00;;;;;;;8.85;7.80;;;;;;;28.00;52.28;64908.34;5070388;28;20223;-75
2023/06/23 09:49:28;;;;;;;8.00;7.30;;;;;;;28.04;51.78;64906.78;5064020;28;20238;-76
2023/06/23 09:51:55;;;;;;;10.25;8.88;;;;;;;27.92;51.20;64894.69;5062327;28;20228;-76
2023/06/23 09:54:32;;;;;;;10.57;7.57;;;;;;;28.07;54.58;64910.47;5064523;28;20416;-78
2023/06/23 09:57:05;;;;;;;8.57;7.50;;;;;;;28.33;54.64;64937.22;5063267;28;20538;-77
2023/06/23 09:59:33;;;;;;;7.95;7.25;;;;;;;28.59;53.28;64964.03;5075529;28;20236;-78
2023/06/23 10:02:00;;;;;;;8.13;7.03;;;;;;;28.72;50.48;64978.19;5074800;28;20220;-76
2023/06/23 10:04:30;;;;;;;8.68;7.85;;;;;;;28.80;50.62;64986.06;5069127;28;20242;-77
2023/06/23 10:06:58;;;;;;;9.13;7.75;;;;;;;28.92;50.81;65003.94;5067828;28;20220;-76
2023/06/23 10:09:26;;;;;;;9.10;8.13;;;;;;;29.14;53.23;65024.97;5066640;28;20204;-78
2023/06/23 10:11:54;;;;;;;8.35;7.63;;;;;;;29.27;51.68;65038.63;5067550;28;20238;-77
2023/06/23 10:14:23;;;;;;;9.85;8.30;;;;;;;29.13;50.24;65021.28;5072265;28;20383;-75
2023/06/23 10:16:57;;;;;;;7.25;6.60;;;;;;;29.19;51.00;65027.06;5074158;28;20219;-77
2023/06/23 10:19:24;;;;;;;8.70;8.00;;;;;;;29.00;52.37;65009.69;5068505;28;20201;-77
2023/06/23 10:21:52;;;;;;;9.05;8.25;;;;;;;29.03;55.71;65012.84;5067917;28;20246;-76
2023/06/23 10:24:21;;;;;;;8.63;7.82;;;;;;;29.17;53.20;65025.47;5066108;28;20196;-76
2023/06/23 10:26:54;;;;;;;9.77;8.35;;;;;;;29.41;55.19;65050.16;5071377;28;20619;-75
2023/06/23 10:29:24;;;;;;;9.63;8.48;;;;;;;29.32;53.07;65041.25;5061511;28;20197;-75
2023/06/23 10:31:55;;;;;;;9.23;8.43;;;;;;;29.22;51.64;65030.22;5067239;28;20221;-74
2023/06/23 10:34:23;;;;;;;8.20;7.40;;;;;;;29.17;51.50;65027.56;5065998;28;20284;-75
2023/06/23 10:36:55;;;;;;;8.98;8.07;;;;;;;29.24;50.43;65037.56;5066116;28;20243;-75
2023/06/23 10:39:25;;;;;;;11.20;7.90;;;;;;;29.25;49.70;65038.63;5071088;28;20220;-77
2023/06/23 10:41:58;;;;;;;11.90;8.75;;;;;;;29.29;52.35;65037.56;5061280;28;20228;-76
2023/06/23 10:44:28;;;;;;;10.65;8.70;;;;;;;29.58;57.04;65064.91;5066906;28;20426;-77
2023/06/23 10:46:56;;;;;;;12.13;8.80;;;;;;;29.70;55.02;65080.16;5071649;28;20246;-76
2023/06/23 10:49:23;;;;;;;10.38;9.45;;;;;;;29.85;55.22;65095.91;5063126;28;20200;-75
2023/06/23 10:51:51;;;;;;;10.70;9.45;;;;;;;29.70;55.45;65082.78;5069414;28;20230;-76
2023/06/23 10:54:27;;;;;;;12.95;10.02;;;;;;;29.71;53.37;65081.19;5065849;28;20236;-75
2023/06/23 10:56:54;;;;;;;10.35;9.45;;;;;;;29.72;52.55;65084.88;5061300;28;20216;-74
2023/06/23 10:59:23;;;;;;;10.50;9.50;;;;;;;29.45;53.76;65052.28;5070927;28;20235;-77
2023/06/23 11:02:18;;;;;;;10.32;9.18;;;;;;;29.61;53.43;65075.91;5071202;28;20232;-76
2023/06/23 11:04:54;;;;;;;10.70;9.50;;;;;;;29.62;53.48;65079.59;5065264;28;20201;-78
2023/06/23 11:07:21;;;;;;;10.68;9.70;;;;;;;29.67;52.72;65079.59;5074918;28;20228;-74
2023/06/23 11:10:02;;;;;;;10.00;9.10;;;;;;;29.41;52.83;65047.53;5069794;28;20266;-76
2023/06/23 11:12:34;;;;;;;11.50;8.63;;;;;;;29.47;53.16;65059.63;5072666;28;20220;-77
2023/06/23 11:15:12;;;;;;;10.88;8.43;;;;;;;29.68;52.74;65078.56;5071628;28;20228;-76
2023/06/23 11:17:48;;;;;;;9.30;8.38;;;;;;;29.76;51.00;65089.59;5067154;28;20197;-76
2023/06/23 11:20:29;;;;;;;15.05;8.73;;;;;;;29.93;50.13;65101.69;5067780;28;20197;-76
2023/06/23 11:23:00;;;;;;;10.68;8.55;;;;;;;29.85;49.76;65098.53;5072952;28;20246;-76
2023/06/23 11:25:29;;;;;;;8.20;7.50;;;;;;;30.11;50.29;65126.41;5070291;28;20228;-77
2023/06/23 11:28:24;;;;;;;9.40;8.50;;;;;;;30.12;51.84;65130.06;5072616;28;20243;-77